createdAt,value
2022-09-15T00:05:16.336Z,3.50
2022-09-15T00:19:16.362Z,4.20
2022-09-15T00:33:16.320Z,3.50
2022-09-15T00:47:19.481Z,3.30
2022-09-15T01:01:16.446Z,3.00
2022-09-15T01:15:16.352Z,3.00
2022-09-15T01:29:16.367Z,3.90
2022-09-15T01:43:16.362Z,3.40
2022-09-15T01:57:16.368Z,3.40
2022-09-15T02:11:16.367Z,3.20
2022-09-15T02:25:16.383Z,3.90
2022-09-15T02:39:16.378Z,3.00
2022-09-15T02:53:16.362Z,3.20
2022-09-15T03:07:16.381Z,2.70
2022-09-15T03:21:16.365Z,3.10
2022-09-15T03:35:16.418Z,4.20
2022-09-15T03:49:16.423Z,4.30
2022-09-15T04:03:16.414Z,4.10
2022-09-15T04:17:16.427Z,4.60
2022-09-15T04:31:16.434Z,4.50
2022-09-15T04:45:16.441Z,4.00
2022-09-15T05:00:16.407Z,4.60
2022-09-15T05:15:16.440Z,7.70
2022-09-15T05:30:36.221Z,7.60
2022-09-15T05:45:16.425Z,6.90
2022-09-15T06:00:16.478Z,5.50
2022-09-15T06:15:16.476Z,5.50
2022-09-15T06:30:16.473Z,4.30
2022-09-15T06:45:16.434Z,4.60
2022-09-15T07:00:16.459Z,5.70
2022-09-15T07:15:16.472Z,5.40
2022-09-15T07:30:16.485Z,5.30
2022-09-15T07:45:16.469Z,4.40
2022-09-15T08:00:16.506Z,5.10
2022-09-15T08:15:16.511Z,3.40
2022-09-15T08:30:16.485Z,4.70
2022-09-15T08:46:16.534Z,4.20
2022-09-15T09:01:16.571Z,4.20
2022-09-15T09:16:16.625Z,4.45
2022-09-15T09:31:16.585Z,3.40
2022-09-15T09:46:16.731Z,4.30
2022-09-15T10:01:16.918Z,4.50
2022-09-15T10:16:16.730Z,3.40
2022-09-15T10:31:16.721Z,5.00
2022-09-15T10:47:16.699Z,11.60
2022-09-15T11:02:16.741Z,12.40
2022-09-15T11:17:16.684Z,16.00
2022-09-15T11:32:16.689Z,14.70
2022-09-15T11:47:16.708Z,14.00
2022-09-15T12:02:16.875Z,11.50
2022-09-15T12:17:16.794Z,14.60
2022-09-15T12:32:16.902Z,12.30
2022-09-15T12:47:16.855Z,12.60
2022-09-15T13:02:17.037Z,14.80
2022-09-15T13:17:16.847Z,12.70
2022-09-15T13:32:16.962Z,8.60
2022-09-15T13:47:16.987Z,12.90
2022-09-15T14:02:17.021Z,11.40
2022-09-15T14:17:16.988Z,12.90
2022-09-15T14:32:16.995Z,15.20
2022-09-15T14:47:17.000Z,14.30
2022-09-15T15:02:17.049Z,16.80
2022-09-15T15:17:17.001Z,12.00
2022-09-15T15:32:17.017Z,15.60
2022-09-15T15:47:16.990Z,13.90
2022-09-15T16:02:17.026Z,11.40
2022-09-15T16:17:17.004Z,14.80
2022-09-15T16:32:17.023Z,16.60
2022-09-15T16:47:17.034Z,16.80
2022-09-15T17:02:17.269Z,9.20
2022-09-15T17:17:18.222Z,11.40
2022-09-15T17:33:17.217Z,12.80
2022-09-15T17:48:17.222Z,14.20
2022-09-15T18:03:17.264Z,14.00
2022-09-15T18:17:17.309Z,10.30
2022-09-15T18:31:17.364Z,11.30
2022-09-15T18:45:17.339Z,10.80
2022-09-15T18:59:17.830Z,13.00
2022-09-15T19:13:17.497Z,12.30
2022-09-15T19:27:17.576Z,15.10
2022-09-15T19:41:17.543Z,14.90
2022-09-15T19:55:17.541Z,16.00
2022-09-15T20:09:17.552Z,14.50
2022-09-15T20:23:17.721Z,11.90
2022-09-15T20:37:17.771Z,10.30
2022-09-15T20:51:17.724Z,10.30
2022-09-15T21:05:17.715Z,9.60
2022-09-15T21:19:17.730Z,11.20
2022-09-15T21:33:17.728Z,11.10
2022-09-15T21:47:17.746Z,9.50
2022-09-15T22:01:17.773Z,9.10
2022-09-15T22:15:17.825Z,10.80
2022-09-15T22:29:17.836Z,9.00
2022-09-15T22:43:17.854Z,6.70
2022-09-15T22:57:17.863Z,7.90
2022-09-15T23:11:17.999Z,8.00
2022-09-15T23:25:18.023Z,7.30
2022-09-15T23:39:18.025Z,7.30
2022-09-15T23:53:18.027Z,7.90
